Contoocook, New Hampshire
Current Conditions -  °F | °C
As of 6:51 PM on Tuesday 25 Nov 2014 (Local Time) from KCON Reporting Station
Clear Clear  
Wind Chill: 42°   Ceiling: Unl
Heat Index: 42°   Visibility: 10mi
Dew Point: 24°   Wind: 0mph
Humidity: 49%   Direction: NA
Pressure: 29.98"   Gusts: NA
Location:  43.22°N, 71.71°W
Report Text: KCON 252351Z AUTO 00000KT 10SM CLR 06/M04 A2998 RMK AO2 SLP155 T00561044 10139 20056 51031
Loading
Personal Weather Stations






























Interactive Weather Map New forecast layout! Learn more

10-Day Weather Forecast

Advertisements
Track Severe Weather on mobile